Detall de PIREP

Printer-friendly versionPDF version

[2014/06/10 09:11:00]
Flight IATA:CT3313
Pilot Number:042
Company ICAO:CAT
Aircraft Type:A320/E
PAX:95
Departing Airport: LTBA
Destination Airport: LEZG
Alternate Airport:LEMD
Online: VATSIM
Route:GOLDO UN79 PINDO UM603 SUKUN UM622 OKIDO UZ347 MINKA UQ182 MALAV UM601 GRAUS
Flight Level:F360
No Slew and time accel
No pause
Crash detect
Detect pilot in Cockpit between each 30 and 45 minutes
09:11 Zero fuel Weight: 124281 Lbs, Fuel Weight: 42145 Lbs
09:11 VATSIM:LTBA 100750Z 11005KT 9999 FEW040 24/18 Q1016 BECMG 03012KT
09:11 VATSIM:LEZG 100800Z 30012KT 270V330 CAVOK 20/13 Q1018
09:15 Parking Brakes off
09:25 Take-off
09:25 Take off Weight: 165052 Lbs
09:25 Wind: 269º @ 008 Knots Heading: 058º
09:25 POS N40º 58´ 40´´ E028º 50´ 11´´
09:25 Gear Up: 137 Knots
09:25 Flaps:3 at 137 Knots
09:26 Flaps:2 at 148 Knots
09:26 Flaps:0 at 198 Knots
09:40 Wind:270º@025 Knots Heading: 269º Ground Speed: 383 Knots Altitude 21745 ft
09:50 TOC
09:50 Fuel Weight: 36415 Lb
09:55 Wind:270º@025 Knots Heading: 265º Ground Speed: 421 Knots Altitude 35987 ft
10:10 Wind:270º@025 Knots Heading: 264º Ground Speed: 420 Knots Altitude 35987 ft
10:25 Wind:270º@025 Knots Heading: 275º Ground Speed: 419 Knots Altitude 35987 ft
10:40 Wind:270º@025 Knots Heading: 270º Ground Speed: 419 Knots Altitude 35987 ft
10:55 Wind:270º@025 Knots Heading: 269º Ground Speed: 418 Knots Altitude 35987 ft
11:10 Wind:270º@025 Knots Heading: 286º Ground Speed: 419 Knots Altitude 35987 ft
11:25 Wind:270º@025 Knots Heading: 266º Ground Speed: 418 Knots Altitude 35987 ft
11:40 Wind:270º@025 Knots Heading: 269º Ground Speed: 417 Knots Altitude 35987 ft
11:55 Wind:270º@025 Knots Heading: 272º Ground Speed: 416 Knots Altitude 35987 ft
12:10 Wind:270º@025 Knots Heading: 277º GroundSpeed: 416 Knots Altitude 35987 ft
12:25 Wind:270º@025 Knots Heading: 276º Ground Speed: 416 Knots Altitude 35987 ft
12:34 TOD
12:34 Fuel Weight: 23383 Lb
12:40 Wind:270º@025 Knots Heading: 295º Ground Speed: 310 Knots Altitude 28316 ft
12:52 Flaps:1 at 206 Knots
12:52 Flaps:3 at 195 Knots
12:55 Wind:270º@021 Knots Heading: 194º Ground Speed: 172 Knots Altitude 10147 ft
13:01 Gear Down: 150 Knots
13:01 Flaps:4 at 150 Knots
13:01 Flaps:5 at 147 Knots
13:01 Flaps:4 at 146 Knots
13:04 TouchDown:Rate -229 ft/min Speed: 136 Knots
13:04 VATSIM:LEZG 101130Z 32006KT 260V020 CAVOK 26/12 Q1017
13:04 Land
13:04 Wind:269º@008 Knots
13:04 Heading: 299º
13:04 Flight Duration: 03:39
13:04 Landing Weight: 146235 Lbs
13:04 POS N41º 39´ 39´´ W001º 01´ 17´´
13:09 Parking brakes on
13:09 Block to Block Duration: 03:54
13:09 Final Fuel: 21408 Lbls
13:09 Spent Fuel: 20736Lbls
13:09 Flight Length: 1407 NM
13:09 TOD Land Length: 121 NM

Exportar CSV

Powered by Drupal - Modified by Danger4k